LIEE/CAG METAR and TAF weather

Enter ICAO airport designator
Station Type Date Time Source
LIEE METAR 2019/10/15 21:20 UTC NOAA

LIEE 152120Z 33006KT 9999 FEW040 19/14 Q1018


Station Type Date Time Source
LIEE Decoded METAR 2019/10/15 21:20 UTC NOAA

Cagliari / Elmas, Italy (LIEE) 39-15N 009-04E 5M
Oct 15, 2019 - 05:20 PM EDT / 2019.10.15 2120 UTC
Wind: from the NNW (330 degrees) at 7 MPH (6 KT):0
Visibility: greater than 7 mile(s):0
Sky conditions: mostly clear
Temperature: 66 F (19 C)
Dew Point: 57 F (14 C)
Relative Humidity: 72%
Pressure (altimeter): 30.06 in. Hg (1018 hPa)
ob: LIEE 152120Z 33006KT 9999 FEW040 19/14 Q1018
cycle: 21

Station Type Date Time Source
LIEE TAF 2019/10/15 18:21 UTC NOAA

TAF LIEE 151700Z 1518/1618 32012KT 9999 SCT020

Example: see airport list